sensor_id;sensor_type;location;lat;lon;timestamp;P1;durP1;ratioP1;P2;durP2;ratioP2
29002;SDS011;16102;57.138;-2.118;2022-11-06T00:01:05;6.50;;;3.33;;
29002;SDS011;16102;57.138;-2.118;2022-11-06T00:03:36;4.45;;;3.60;;
29002;SDS011;16102;57.138;-2.118;2022-11-06T00:06:11;4.07;;;3.63;;
29002;SDS011;16102;57.138;-2.118;2022-11-06T00:09:00;5.20;;;3.53;;
29002;SDS011;16102;57.138;-2.118;2022-11-06T00:11:29;4.18;;;3.13;;
29002;SDS011;16102;57.138;-2.118;2022-11-06T00:13:56;3.75;;;2.80;;
29002;SDS011;16102;57.138;-2.118;2022-11-06T00:16:24;4.63;;;3.13;;
29002;SDS011;16102;57.138;-2.118;2022-11-06T00:18:50;4.85;;;3.70;;
29002;SDS011;16102;57.138;-2.118;2022-11-06T00:21:25;4.10;;;2.90;;
29002;SDS011;16102;57.138;-2.118;2022-11-06T00:23:53;4.97;;;3.35;;
29002;SDS011;16102;57.138;-2.118;2022-11-06T00:26:23;5.10;;;3.28;;
29002;SDS011;16102;57.138;-2.118;2022-11-06T00:28:52;2.63;;;2.25;;
29002;SDS011;16102;57.138;-2.118;2022-11-06T00:31:21;3.30;;;2.17;;
29002;SDS011;16102;57.138;-2.118;2022-11-06T00:33:52;4.22;;;3.55;;
29002;SDS011;16102;57.138;-2.118;2022-11-06T00:36:20;2.63;;;2.35;;
29002;SDS011;16102;57.138;-2.118;2022-11-06T00:38:52;6.40;;;3.83;;
29002;SDS011;16102;57.138;-2.118;2022-11-06T00:41:20;4.32;;;2.80;;
29002;SDS011;16102;57.138;-2.118;2022-11-06T00:43:51;4.13;;;3.10;;
29002;SDS011;16102;57.138;-2.118;2022-11-06T00:46:21;4.18;;;2.92;;
29002;SDS011;16102;57.138;-2.118;2022-11-06T00:48:48;13.00;;;6.93;;
29002;SDS011;16102;57.138;-2.118;2022-11-06T00:51:18;12.73;;;6.78;;
29002;SDS011;16102;57.138;-2.118;2022-11-06T00:53:47;10.93;;;5.43;;
29002;SDS011;16102;57.138;-2.118;2022-11-06T00:56:18;6.28;;;3.78;;
29002;SDS011;16102;57.138;-2.118;2022-11-06T00:58:46;5.50;;;3.45;;
29002;SDS011;16102;57.138;-2.118;2022-11-06T01:03:51;7.25;;;3.75;;
29002;SDS011;16102;57.138;-2.118;2022-11-06T01:06:20;4.03;;;2.75;;
29002;SDS011;16102;57.138;-2.118;2022-11-06T01:08:51;6.30;;;3.58;;
29002;SDS011;16102;57.138;-2.118;2022-11-06T01:11:26;3.70;;;2.65;;
29002;SDS011;16102;57.138;-2.118;2022-11-06T01:14:21;6.28;;;3.60;;
29002;SDS011;16102;57.138;-2.118;2022-11-06T01:16:49;8.32;;;4.22;;
29002;SDS011;16102;57.138;-2.118;2022-11-06T01:19:17;6.43;;;3.50;;
29002;SDS011;16102;57.138;-2.118;2022-11-06T01:21:45;5.60;;;2.65;;
29002;SDS011;16102;57.138;-2.118;2022-11-06T01:24:15;6.30;;;2.30;;
29002;SDS011;16102;57.138;-2.118;2022-11-06T01:26:43;4.13;;;2.65;;
29002;SDS011;16102;57.138;-2.118;2022-11-06T01:29:31;2.78;;;1.80;;
29002;SDS011;16102;57.138;-2.118;2022-11-06T01:31:58;2.58;;;1.65;;
29002;SDS011;16102;57.138;-2.118;2022-11-06T01:34:25;3.35;;;2.15;;
29002;SDS011;16102;57.138;-2.118;2022-11-06T01:36:52;5.80;;;2.67;;
29002;SDS011;16102;57.138;-2.118;2022-11-06T01:39:19;5.68;;;2.28;;
29002;SDS011;16102;57.138;-2.118;2022-11-06T01:41:47;6.35;;;2.40;;
29002;SDS011;16102;57.138;-2.118;2022-11-06T01:47:02;2.78;;;1.33;;
29002;SDS011;16102;57.138;-2.118;2022-11-06T01:49:41;2.85;;;1.55;;
29002;SDS011;16102;57.138;-2.118;2022-11-06T01:52:09;7.88;;;2.47;;
29002;SDS011;16102;57.138;-2.118;2022-11-06T01:54:38;4.32;;;2.33;;
29002;SDS011;16102;57.138;-2.118;2022-11-06T01:57:08;2.83;;;1.27;;
29002;SDS011;16102;57.138;-2.118;2022-11-06T01:59:37;7.82;;;2.75;;
29002;SDS011;16102;57.138;-2.118;2022-11-06T02:02:08;5.55;;;1.98;;
29002;SDS011;16102;57.138;-2.118;2022-11-06T02:04:37;3.65;;;1.50;;
29002;SDS011;16102;57.138;-2.118;2022-11-06T02:07:08;2.25;;;1.50;;
29002;SDS011;16102;57.138;-2.118;2022-11-06T02:09:36;2.63;;;1.55;;
29002;SDS011;16102;57.138;-2.118;2022-11-06T02:20:03;2.97;;;1.17;;
29002;SDS011;16102;57.138;-2.118;2022-11-06T02:28:01;4.05;;;1.00;;
29002;SDS011;16102;57.138;-2.118;2022-11-06T02:30:35;5.13;;;1.67;;
29002;SDS011;16102;57.138;-2.118;2022-11-06T02:33:11;2.88;;;1.30;;
29002;SDS011;16102;57.138;-2.118;2022-11-06T02:35:50;2.33;;;1.02;;
29002;SDS011;16102;57.138;-2.118;2022-11-06T02:38:25;3.03;;;1.27;;
29002;SDS011;16102;57.138;-2.118;2022-11-06T02:40:57;2.78;;;1.40;;
29002;SDS011;16102;57.138;-2.118;2022-11-06T02:43:35;3.30;;;1.50;;
29002;SDS011;16102;57.138;-2.118;2022-11-06T02:46:08;3.88;;;1.83;;
29002;SDS011;16102;57.138;-2.118;2022-11-06T02:48:49;4.53;;;1.92;;
29002;SDS011;16102;57.138;-2.118;2022-11-06T02:51:23;4.00;;;1.52;;
29002;SDS011;16102;57.138;-2.118;2022-11-06T02:53:53;3.15;;;1.40;;
29002;SDS011;16102;57.138;-2.118;2022-11-06T02:56:26;3.15;;;1.50;;
29002;SDS011;16102;57.138;-2.118;2022-11-06T02:59:02;3.28;;;1.17;;
29002;SDS011;16102;57.138;-2.118;2022-11-06T03:04:28;3.60;;;0.98;;
29002;SDS011;16102;57.138;-2.118;2022-11-06T03:07:02;1.85;;;0.95;;
29002;SDS011;16102;57.138;-2.118;2022-11-06T03:09:36;1.77;;;0.73;;
29002;SDS011;16102;57.138;-2.118;2022-11-06T03:12:08;1.73;;;0.77;;
29002;SDS011;16102;57.138;-2.118;2022-11-06T03:23:49;4.65;;;1.17;;
29002;SDS011;16102;57.138;-2.118;2022-11-06T03:26:40;2.53;;;1.42;;
29002;SDS011;16102;57.138;-2.118;2022-11-06T03:29:34;2.35;;;1.00;;
29002;SDS011;16102;57.138;-2.118;2022-11-06T03:34:54;16.08;;;4.15;;
29002;SDS011;16102;57.138;-2.118;2022-11-06T03:37:39;8.80;;;2.10;;
29002;SDS011;16102;57.138;-2.118;2022-11-06T03:40:11;11.18;;;1.85;;
29002;SDS011;16102;57.138;-2.118;2022-11-06T03:42:41;5.15;;;1.63;;
29002;SDS011;16102;57.138;-2.118;2022-11-06T03:45:12;10.77;;;1.98;;
29002;SDS011;16102;57.138;-2.118;2022-11-06T03:47:52;13.40;;;3.03;;
29002;SDS011;16102;57.138;-2.118;2022-11-06T03:50:35;5.28;;;1.63;;
29002;SDS011;16102;57.138;-2.118;2022-11-06T03:53:11;5.40;;;2.10;;
29002;SDS011;16102;57.138;-2.118;2022-11-06T03:55:48;6.10;;;1.83;;
29002;SDS011;16102;57.138;-2.118;2022-11-06T03:58:26;8.45;;;2.30;;
29002;SDS011;16102;57.138;-2.118;2022-11-06T04:00:59;2.15;;;1.40;;
29002;SDS011;16102;57.138;-2.118;2022-11-06T04:03:33;8.02;;;2.08;;
29002;SDS011;16102;57.138;-2.118;2022-11-06T04:06:11;7.70;;;1.88;;
29002;SDS011;16102;57.138;-2.118;2022-11-06T04:08:44;5.90;;;2.25;;
29002;SDS011;16102;57.138;-2.118;2022-11-06T04:11:33;4.28;;;1.40;;
29002;SDS011;16102;57.138;-2.118;2022-11-06T04:14:21;1.95;;;1.20;;
29002;SDS011;16102;57.138;-2.118;2022-11-06T04:16:52;7.93;;;2.13;;
29002;SDS011;16102;57.138;-2.118;2022-11-06T04:19:21;3.88;;;1.13;;
29002;SDS011;16102;57.138;-2.118;2022-11-06T04:21:55;5.45;;;1.50;;
29002;SDS011;16102;57.138;-2.118;2022-11-06T04:27:57;3.45;;;1.00;;
29002;SDS011;16102;57.138;-2.118;2022-11-06T04:30:32;5.32;;;1.58;;
29002;SDS011;16102;57.138;-2.118;2022-11-06T04:33:13;6.15;;;2.08;;
29002;SDS011;16102;57.138;-2.118;2022-11-06T04:35:52;10.20;;;2.20;;
29002;SDS011;16102;57.138;-2.118;2022-11-06T04:41:27;8.75;;;2.50;;
29002;SDS011;16102;57.138;-2.118;2022-11-06T04:47:08;5.97;;;1.73;;
29002;SDS011;16102;57.138;-2.118;2022-11-06T04:49:38;3.25;;;1.90;;
29002;SDS011;16102;57.138;-2.118;2022-11-06T04:52:08;2.20;;;1.42;;
29002;SDS011;16102;57.138;-2.118;2022-11-06T04:54:38;4.40;;;1.23;;
29002;SDS011;16102;57.138;-2.118;2022-11-06T04:57:06;4.15;;;1.55;;
29002;SDS011;16102;57.138;-2.118;2022-11-06T04:59:34;5.68;;;1.67;;
29002;SDS011;16102;57.138;-2.118;2022-11-06T05:02:02;14.13;;;3.78;;
29002;SDS011;16102;57.138;-2.118;2022-11-06T05:04:30;6.13;;;1.63;;
29002;SDS011;16102;57.138;-2.118;2022-11-06T05:06:57;3.38;;;1.40;;
29002;SDS011;16102;57.138;-2.118;2022-11-06T05:09:24;3.25;;;1.38;;
29002;SDS011;16102;57.138;-2.118;2022-11-06T05:11:51;3.78;;;1.63;;
29002;SDS011;16102;57.138;-2.118;2022-11-06T05:14:18;3.75;;;1.10;;
29002;SDS011;16102;57.138;-2.118;2022-11-06T05:16:46;15.30;;;3.30;;
29002;SDS011;16102;57.138;-2.118;2022-11-06T05:19:12;8.55;;;2.67;;
29002;SDS011;16102;57.138;-2.118;2022-11-06T05:21:39;6.32;;;1.58;;
29002;SDS011;16102;57.138;-2.118;2022-11-06T05:24:25;11.50;;;3.10;;
29002;SDS011;16102;57.138;-2.118;2022-11-06T05:26:52;4.70;;;1.67;;
29002;SDS011;16102;57.138;-2.118;2022-11-06T05:29:24;8.55;;;3.40;;
29002;SDS011;16102;57.138;-2.118;2022-11-06T05:31:52;6.90;;;2.58;;
29002;SDS011;16102;57.138;-2.118;2022-11-06T05:34:19;6.70;;;2.80;;
29002;SDS011;16102;57.138;-2.118;2022-11-06T05:36:46;4.45;;;2.00;;
29002;SDS011;16102;57.138;-2.118;2022-11-06T05:39:13;7.78;;;1.60;;
29002;SDS011;16102;57.138;-2.118;2022-11-06T05:41:40;4.95;;;1.58;;
29002;SDS011;16102;57.138;-2.118;2022-11-06T05:44:07;15.85;;;4.95;;
29002;SDS011;16102;57.138;-2.118;2022-11-06T05:46:34;24.35;;;6.82;;
29002;SDS011;16102;57.138;-2.118;2022-11-06T05:49:13;20.17;;;4.88;;
29002;SDS011;16102;57.138;-2.118;2022-11-06T05:51:40;6.15;;;2.83;;
29002;SDS011;16102;57.138;-2.118;2022-11-06T05:54:07;8.63;;;2.65;;
29002;SDS011;16102;57.138;-2.118;2022-11-06T05:56:34;15.02;;;3.25;;
29002;SDS011;16102;57.138;-2.118;2022-11-06T05:59:01;7.45;;;4.18;;
29002;SDS011;16102;57.138;-2.118;2022-11-06T06:01:28;7.63;;;2.50;;
29002;SDS011;16102;57.138;-2.118;2022-11-06T06:03:55;6.45;;;2.05;;
29002;SDS011;16102;57.138;-2.118;2022-11-06T06:06:22;6.00;;;2.63;;
29002;SDS011;16102;57.138;-2.118;2022-11-06T06:08:49;18.30;;;6.05;;
29002;SDS011;16102;57.138;-2.118;2022-11-06T06:11:16;16.33;;;3.95;;
29002;SDS011;16102;57.138;-2.118;2022-11-06T06:13:43;6.72;;;3.17;;
29002;SDS011;16102;57.138;-2.118;2022-11-06T06:16:10;9.45;;;2.95;;
29002;SDS011;16102;57.138;-2.118;2022-11-06T06:18:37;6.10;;;2.63;;
29002;SDS011;16102;57.138;-2.118;2022-11-06T06:21:04;6.65;;;2.40;;
29002;SDS011;16102;57.138;-2.118;2022-11-06T06:23:32;4.35;;;1.80;;
29002;SDS011;16102;57.138;-2.118;2022-11-06T06:25:59;6.45;;;2.03;;
29002;SDS011;16102;57.138;-2.118;2022-11-06T06:28:26;7.53;;;1.90;;
29002;SDS011;16102;57.138;-2.118;2022-11-06T06:30:53;5.47;;;2.25;;
29002;SDS011;16102;57.138;-2.118;2022-11-06T06:33:26;4.72;;;1.50;;
29002;SDS011;16102;57.138;-2.118;2022-11-06T06:35:53;6.72;;;2.55;;
29002;SDS011;16102;57.138;-2.118;2022-11-06T06:38:21;5.93;;;2.28;;
29002;SDS011;16102;57.138;-2.118;2022-11-06T06:40:48;5.25;;;2.00;;
29002;SDS011;16102;57.138;-2.118;2022-11-06T06:43:16;4.15;;;1.58;;
29002;SDS011;16102;57.138;-2.118;2022-11-06T06:45:43;4.68;;;1.60;;
29002;SDS011;16102;57.138;-2.118;2022-11-06T06:48:10;3.90;;;1.70;;
29002;SDS011;16102;57.138;-2.118;2022-11-06T06:50:38;3.50;;;1.50;;
29002;SDS011;16102;57.138;-2.118;2022-11-06T06:53:05;5.13;;;2.03;;
29002;SDS011;16102;57.138;-2.118;2022-11-06T06:55:32;8.45;;;1.75;;
29002;SDS011;16102;57.138;-2.118;2022-11-06T06:57:59;3.30;;;1.90;;
29002;SDS011;16102;57.138;-2.118;2022-11-06T07:00:27;4.25;;;2.28;;
29002;SDS011;16102;57.138;-2.118;2022-11-06T07:02:54;5.10;;;1.67;;
29002;SDS011;16102;57.138;-2.118;2022-11-06T07:05:21;7.50;;;2.05;;
29002;SDS011;16102;57.138;-2.118;2022-11-06T07:07:48;5.22;;;2.40;;
29002;SDS011;16102;57.138;-2.118;2022-11-06T07:10:16;8.65;;;2.67;;
29002;SDS011;16102;57.138;-2.118;2022-11-06T07:12:43;6.45;;;2.28;;
29002;SDS011;16102;57.138;-2.118;2022-11-06T07:15:10;4.18;;;1.98;;
29002;SDS011;16102;57.138;-2.118;2022-11-06T07:17:38;7.57;;;1.65;;
29002;SDS011;16102;57.138;-2.118;2022-11-06T07:20:05;11.02;;;2.60;;
29002;SDS011;16102;57.138;-2.118;2022-11-06T07:22:32;3.03;;;1.33;;
29002;SDS011;16102;57.138;-2.118;2022-11-06T07:25:03;5.75;;;2.17;;
29002;SDS011;16102;57.138;-2.118;2022-11-06T07:27:31;5.30;;;2.20;;
29002;SDS011;16102;57.138;-2.118;2022-11-06T07:29:59;11.95;;;3.70;;
29002;SDS011;16102;57.138;-2.118;2022-11-06T07:32:26;3.95;;;1.92;;
29002;SDS011;16102;57.138;-2.118;2022-11-06T07:34:54;8.70;;;2.60;;
29002;SDS011;16102;57.138;-2.118;2022-11-06T07:37:21;5.88;;;2.45;;
29002;SDS011;16102;57.138;-2.118;2022-11-06T07:39:48;5.47;;;1.48;;
29002;SDS011;16102;57.138;-2.118;2022-11-06T07:42:15;14.63;;;2.33;;
29002;SDS011;16102;57.138;-2.118;2022-11-06T07:44:42;5.72;;;1.90;;
29002;SDS011;16102;57.138;-2.118;2022-11-06T07:47:09;8.18;;;1.58;;
29002;SDS011;16102;57.138;-2.118;2022-11-06T07:49:36;4.70;;;1.33;;
29002;SDS011;16102;57.138;-2.118;2022-11-06T07:52:04;6.45;;;1.88;;
29002;SDS011;16102;57.138;-2.118;2022-11-06T07:54:31;12.18;;;2.03;;
29002;SDS011;16102;57.138;-2.118;2022-11-06T07:56:58;7.68;;;2.05;;
29002;SDS011;16102;57.138;-2.118;2022-11-06T07:59:25;7.65;;;2.25;;
29002;SDS011;16102;57.138;-2.118;2022-11-06T08:01:52;14.48;;;2.83;;
29002;SDS011;16102;57.138;-2.118;2022-11-06T08:04:20;7.57;;;2.42;;
29002;SDS011;16102;57.138;-2.118;2022-11-06T08:06:47;4.70;;;1.48;;
29002;SDS011;16102;57.138;-2.118;2022-11-06T08:09:14;10.57;;;2.50;;
29002;SDS011;16102;57.138;-2.118;2022-11-06T08:11:41;7.93;;;2.33;;
29002;SDS011;16102;57.138;-2.118;2022-11-06T08:14:08;7.00;;;2.83;;
29002;SDS011;16102;57.138;-2.118;2022-11-06T08:16:36;7.15;;;2.03;;
29002;SDS011;16102;57.138;-2.118;2022-11-06T08:19:03;13.13;;;3.38;;
29002;SDS011;16102;57.138;-2.118;2022-11-06T08:21:30;6.85;;;2.13;;
29002;SDS011;16102;57.138;-2.118;2022-11-06T08:23:57;10.50;;;1.98;;
29002;SDS011;16102;57.138;-2.118;2022-11-06T08:26:24;8.20;;;1.63;;
29002;SDS011;16102;57.138;-2.118;2022-11-06T08:28:52;9.68;;;2.05;;
29002;SDS011;16102;57.138;-2.118;2022-11-06T08:31:19;11.18;;;2.15;;
29002;SDS011;16102;57.138;-2.118;2022-11-06T08:33:46;13.35;;;3.38;;
29002;SDS011;16102;57.138;-2.118;2022-11-06T08:36:13;14.20;;;2.55;;
29002;SDS011;16102;57.138;-2.118;2022-11-06T08:38:41;17.52;;;3.97;;
29002;SDS011;16102;57.138;-2.118;2022-11-06T08:41:11;12.23;;;3.65;;
29002;SDS011;16102;57.138;-2.118;2022-11-06T08:43:38;13.15;;;2.08;;
29002;SDS011;16102;57.138;-2.118;2022-11-06T08:46:06;10.85;;;3.67;;
29002;SDS011;16102;57.138;-2.118;2022-11-06T08:48:34;9.38;;;2.25;;
29002;SDS011;16102;57.138;-2.118;2022-11-06T08:51:02;18.20;;;3.22;;
29002;SDS011;16102;57.138;-2.118;2022-11-06T08:53:30;7.28;;;1.73;;
29002;SDS011;16102;57.138;-2.118;2022-11-06T08:55:57;11.70;;;2.65;;
29002;SDS011;16102;57.138;-2.118;2022-11-06T08:58:25;13.63;;;2.30;;
29002;SDS011;16102;57.138;-2.118;2022-11-06T09:00:52;9.15;;;2.15;;
29002;SDS011;16102;57.138;-2.118;2022-11-06T09:03:19;9.18;;;3.05;;
29002;SDS011;16102;57.138;-2.118;2022-11-06T09:05:46;8.70;;;2.25;;
29002;SDS011;16102;57.138;-2.118;2022-11-06T09:08:13;15.30;;;3.13;;
29002;SDS011;16102;57.138;-2.118;2022-11-06T09:10:41;8.05;;;2.65;;
29002;SDS011;16102;57.138;-2.118;2022-11-06T09:13:09;9.40;;;2.33;;
29002;SDS011;16102;57.138;-2.118;2022-11-06T09:15:37;10.05;;;2.10;;
29002;SDS011;16102;57.138;-2.118;2022-11-06T09:18:04;11.98;;;2.78;;
29002;SDS011;16102;57.138;-2.118;2022-11-06T09:20:32;11.77;;;2.22;;
29002;SDS011;16102;57.138;-2.118;2022-11-06T09:23:03;8.63;;;1.55;;
29002;SDS011;16102;57.138;-2.118;2022-11-06T09:25:32;10.43;;;2.55;;
29002;SDS011;16102;57.138;-2.118;2022-11-06T09:27:59;14.68;;;2.67;;
29002;SDS011;16102;57.138;-2.118;2022-11-06T09:30:30;9.02;;;2.20;;
29002;SDS011;16102;57.138;-2.118;2022-11-06T09:32:58;22.98;;;4.40;;
29002;SDS011;16102;57.138;-2.118;2022-11-06T09:35:27;7.88;;;1.90;;
29002;SDS011;16102;57.138;-2.118;2022-11-06T09:37:59;12.57;;;2.83;;
29002;SDS011;16102;57.138;-2.118;2022-11-06T09:45:28;28.63;;;4.88;;
29002;SDS011;16102;57.138;-2.118;2022-11-06T09:48:12;17.50;;;3.95;;
29002;SDS011;16102;57.138;-2.118;2022-11-06T09:51:40;10.10;;;2.38;;
29002;SDS011;16102;57.138;-2.118;2022-11-06T09:59:09;20.00;;;3.80;;
29002;SDS011;16102;57.138;-2.118;2022-11-06T10:01:41;18.30;;;4.10;;
29002;SDS011;16102;57.138;-2.118;2022-11-06T10:07:21;20.42;;;4.20;;
29002;SDS011;16102;57.138;-2.118;2022-11-06T10:10:02;16.73;;;4.18;;
29002;SDS011;16102;57.138;-2.118;2022-11-06T10:16:48;14.75;;;4.18;;
29002;SDS011;16102;57.138;-2.118;2022-11-06T10:18:55;13.38;;;3.13;;
29002;SDS011;16102;57.138;-2.118;2022-11-06T10:27:16;17.45;;;3.90;;
29002;SDS011;16102;57.138;-2.118;2022-11-06T10:29:57;9.63;;;2.40;;
29002;SDS011;16102;57.138;-2.118;2022-11-06T10:37:50;7.43;;;2.28;;
29002;SDS011;16102;57.138;-2.118;2022-11-06T10:40:23;11.60;;;2.45;;
29002;SDS011;16102;57.138;-2.118;2022-11-06T10:45:50;12.88;;;3.55;;
29002;SDS011;16102;57.138;-2.118;2022-11-06T10:48:29;17.83;;;4.63;;
29002;SDS011;16102;57.138;-2.118;2022-11-06T10:54:06;18.35;;;5.25;;
29002;SDS011;16102;57.138;-2.118;2022-11-06T10:56:47;10.75;;;2.90;;
29002;SDS011;16102;57.138;-2.118;2022-11-06T10:59:28;10.95;;;3.72;;
29002;SDS011;16102;57.138;-2.118;2022-11-06T11:01:56;18.27;;;5.43;;
29002;SDS011;16102;57.138;-2.118;2022-11-06T11:04:23;23.75;;;5.43;;
29002;SDS011;16102;57.138;-2.118;2022-11-06T11:06:50;22.33;;;6.05;;
29002;SDS011;16102;57.138;-2.118;2022-11-06T11:09:32;14.90;;;4.15;;
29002;SDS011;16102;57.138;-2.118;2022-11-06T11:11:59;20.83;;;4.78;;
29002;SDS011;16102;57.138;-2.118;2022-11-06T11:14:30;9.38;;;3.92;;
29002;SDS011;16102;57.138;-2.118;2022-11-06T11:16:58;12.85;;;3.33;;
29002;SDS011;16102;57.138;-2.118;2022-11-06T11:19:40;11.43;;;4.65;;
29002;SDS011;16102;57.138;-2.118;2022-11-06T11:25:01;15.15;;;5.32;;
29002;SDS011;16102;57.138;-2.118;2022-11-06T11:27:30;10.93;;;4.25;;
29002;SDS011;16102;57.138;-2.118;2022-11-06T11:30:05;14.88;;;5.85;;
29002;SDS011;16102;57.138;-2.118;2022-11-06T11:32:44;9.00;;;3.63;;
29002;SDS011;16102;57.138;-2.118;2022-11-06T11:35:18;13.80;;;4.60;;
29002;SDS011;16102;57.138;-2.118;2022-11-06T11:37:47;17.13;;;6.43;;
29002;SDS011;16102;57.138;-2.118;2022-11-06T11:43:20;12.13;;;3.67;;
29002;SDS011;16102;57.138;-2.118;2022-11-06T11:46:36;11.50;;;4.25;;
29002;SDS011;16102;57.138;-2.118;2022-11-06T11:53:50;25.40;;;7.97;;
29002;SDS011;16102;57.138;-2.118;2022-11-06T11:56:20;26.10;;;9.15;;
29002;SDS011;16102;57.138;-2.118;2022-11-06T11:59:11;31.35;;;9.70;;
29002;SDS011;16102;57.138;-2.118;2022-11-06T12:01:45;22.85;;;8.18;;
29002;SDS011;16102;57.138;-2.118;2022-11-06T12:07:00;14.77;;;5.97;;
29002;SDS011;16102;57.138;-2.118;2022-11-06T12:09:48;26.48;;;6.78;;
29002;SDS011;16102;57.138;-2.118;2022-11-06T12:12:20;15.57;;;7.68;;
29002;SDS011;16102;57.138;-2.118;2022-11-06T12:14:49;15.90;;;5.47;;
29002;SDS011;16102;57.138;-2.118;2022-11-06T12:18:00;20.38;;;8.48;;
29002;SDS011;16102;57.138;-2.118;2022-11-06T12:23:22;15.93;;;6.28;;
29002;SDS011;16102;57.138;-2.118;2022-11-06T12:26:11;21.30;;;9.73;;
29002;SDS011;16102;57.138;-2.118;2022-11-06T12:29:46;19.08;;;8.60;;
29002;SDS011;16102;57.138;-2.118;2022-11-06T12:37:37;10.63;;;4.88;;
29002;SDS011;16102;57.138;-2.118;2022-11-06T12:40:18;16.02;;;7.30;;
29002;SDS011;16102;57.138;-2.118;2022-11-06T12:45:35;12.30;;;5.13;;
29002;SDS011;16102;57.138;-2.118;2022-11-06T12:54:00;12.82;;;5.53;;
29002;SDS011;16102;57.138;-2.118;2022-11-06T12:56:49;16.75;;;6.88;;
29002;SDS011;16102;57.138;-2.118;2022-11-06T13:05:32;12.23;;;5.57;;
29002;SDS011;16102;57.138;-2.118;2022-11-06T13:08:23;10.38;;;4.85;;
29002;SDS011;16102;57.138;-2.118;2022-11-06T13:11:05;14.18;;;5.18;;
29002;SDS011;16102;57.138;-2.118;2022-11-06T13:22:03;15.77;;;5.32;;
29002;SDS011;16102;57.138;-2.118;2022-11-06T13:24:52;13.88;;;5.45;;
29002;SDS011;16102;57.138;-2.118;2022-11-06T13:29:58;18.38;;;6.93;;
29002;SDS011;16102;57.138;-2.118;2022-11-06T13:32:28;15.32;;;5.53;;
29002;SDS011;16102;57.138;-2.118;2022-11-06T13:34:58;19.95;;;6.10;;
29002;SDS011;16102;57.138;-2.118;2022-11-06T13:40:19;9.13;;;3.60;;
29002;SDS011;16102;57.138;-2.118;2022-11-06T13:48:43;12.18;;;5.10;;
29002;SDS011;16102;57.138;-2.118;2022-11-06T13:54:02;6.40;;;2.60;;
29002;SDS011;16102;57.138;-2.118;2022-11-06T13:56:53;11.20;;;4.05;;
29002;SDS011;16102;57.138;-2.118;2022-11-06T14:07:39;7.45;;;2.95;;
29002;SDS011;16102;57.138;-2.118;2022-11-06T14:13:04;4.32;;;1.90;;
29002;SDS011;16102;57.138;-2.118;2022-11-06T14:15:36;5.75;;;3.20;;
29002;SDS011;16102;57.138;-2.118;2022-11-06T14:18:05;6.93;;;2.65;;
29002;SDS011;16102;57.138;-2.118;2022-11-06T14:20:39;10.23;;;2.70;;
29002;SDS011;16102;57.138;-2.118;2022-11-06T14:26:03;7.72;;;2.88;;
29002;SDS011;16102;57.138;-2.118;2022-11-06T14:28:40;4.55;;;1.88;;
29002;SDS011;16102;57.138;-2.118;2022-11-06T14:31:09;3.05;;;1.45;;
29002;SDS011;16102;57.138;-2.118;2022-11-06T14:38:51;3.35;;;1.40;;
29002;SDS011;16102;57.138;-2.118;2022-11-06T14:44:01;3.53;;;1.77;;
29002;SDS011;16102;57.138;-2.118;2022-11-06T14:46:47;8.77;;;2.05;;
29002;SDS011;16102;57.138;-2.118;2022-11-06T14:49:27;10.68;;;3.25;;
29002;SDS011;16102;57.138;-2.118;2022-11-06T14:52:04;10.35;;;2.67;;
29002;SDS011;16102;57.138;-2.118;2022-11-06T14:54:34;12.27;;;3.50;;
29002;SDS011;16102;57.138;-2.118;2022-11-06T14:57:06;3.55;;;1.45;;
29002;SDS011;16102;57.138;-2.118;2022-11-06T14:59:39;7.35;;;1.55;;
29002;SDS011;16102;57.138;-2.118;2022-11-06T15:05:01;4.80;;;1.40;;
29002;SDS011;16102;57.138;-2.118;2022-11-06T15:13:09;8.00;;;2.47;;
29002;SDS011;16102;57.138;-2.118;2022-11-06T15:15:40;9.15;;;2.60;;
29002;SDS011;16102;57.138;-2.118;2022-11-06T15:18:11;5.95;;;2.72;;
29002;SDS011;16102;57.138;-2.118;2022-11-06T15:20:42;7.90;;;2.17;;
29002;SDS011;16102;57.138;-2.118;2022-11-06T15:23:22;1.85;;;1.05;;
29002;SDS011;16102;57.138;-2.118;2022-11-06T15:28:37;2.53;;;1.20;;
29002;SDS011;16102;57.138;-2.118;2022-11-06T15:31:10;5.43;;;1.77;;
29002;SDS011;16102;57.138;-2.118;2022-11-06T15:33:46;6.78;;;2.38;;
29002;SDS011;16102;57.138;-2.118;2022-11-06T15:36:37;4.85;;;2.00;;
29002;SDS011;16102;57.138;-2.118;2022-11-06T15:39:22;18.00;;;4.47;;
29002;SDS011;16102;57.138;-2.118;2022-11-06T15:41:55;13.90;;;3.17;;
29002;SDS011;16102;57.138;-2.118;2022-11-06T15:44:22;11.77;;;3.90;;
29002;SDS011;16102;57.138;-2.118;2022-11-06T15:46:51;8.35;;;2.63;;
29002;SDS011;16102;57.138;-2.118;2022-11-06T15:49:19;8.63;;;2.55;;
29002;SDS011;16102;57.138;-2.118;2022-11-06T15:59:46;11.35;;;3.38;;
29002;SDS011;16102;57.138;-2.118;2022-11-06T16:02:15;5.72;;;2.33;;
29002;SDS011;16102;57.138;-2.118;2022-11-06T16:04:43;5.18;;;2.30;;
29002;SDS011;16102;57.138;-2.118;2022-11-06T16:07:12;10.52;;;4.53;;
29002;SDS011;16102;57.138;-2.118;2022-11-06T16:09:41;7.75;;;2.50;;
29002;SDS011;16102;57.138;-2.118;2022-11-06T16:12:12;5.55;;;2.75;;
29002;SDS011;16102;57.138;-2.118;2022-11-06T16:14:42;9.70;;;2.55;;
29002;SDS011;16102;57.138;-2.118;2022-11-06T16:17:11;6.80;;;2.42;;
29002;SDS011;16102;57.138;-2.118;2022-11-06T16:19:48;8.65;;;2.70;;
29002;SDS011;16102;57.138;-2.118;2022-11-06T16:22:17;8.90;;;3.35;;
29002;SDS011;16102;57.138;-2.118;2022-11-06T16:24:53;4.78;;;2.30;;
29002;SDS011;16102;57.138;-2.118;2022-11-06T16:27:23;6.82;;;2.75;;
29002;SDS011;16102;57.138;-2.118;2022-11-06T16:29:55;10.07;;;4.55;;
29002;SDS011;16102;57.138;-2.118;2022-11-06T16:32:26;8.32;;;3.13;;
29002;SDS011;16102;57.138;-2.118;2022-11-06T16:34:57;8.10;;;3.13;;
29002;SDS011;16102;57.138;-2.118;2022-11-06T16:39:55;4.68;;;1.70;;
29002;SDS011;16102;57.138;-2.118;2022-11-06T16:42:28;6.32;;;2.50;;
29002;SDS011;16102;57.138;-2.118;2022-11-06T16:45:02;8.88;;;3.42;;
29002;SDS011;16102;57.138;-2.118;2022-11-06T16:48:31;6.22;;;2.00;;
29002;SDS011;16102;57.138;-2.118;2022-11-06T16:50:48;4.05;;;1.85;;
29002;SDS011;16102;57.138;-2.118;2022-11-06T16:53:23;8.95;;;4.13;;
29002;SDS011;16102;57.138;-2.118;2022-11-06T16:58:24;6.40;;;2.83;;
29002;SDS011;16102;57.138;-2.118;2022-11-06T17:00:57;13.93;;;5.13;;
29002;SDS011;16102;57.138;-2.118;2022-11-06T17:03:48;16.52;;;6.60;;
29002;SDS011;16102;57.138;-2.118;2022-11-06T17:06:23;17.33;;;7.55;;
29002;SDS011;16102;57.138;-2.118;2022-11-06T17:08:57;11.63;;;4.68;;
29002;SDS011;16102;57.138;-2.118;2022-11-06T17:11:55;7.18;;;3.22;;
29002;SDS011;16102;57.138;-2.118;2022-11-06T17:14:29;6.43;;;2.58;;
29002;SDS011;16102;57.138;-2.118;2022-11-06T17:16:58;4.68;;;1.98;;
29002;SDS011;16102;57.138;-2.118;2022-11-06T17:19:27;5.75;;;2.60;;
29002;SDS011;16102;57.138;-2.118;2022-11-06T17:21:55;6.68;;;2.33;;
29002;SDS011;16102;57.138;-2.118;2022-11-06T17:24:23;6.85;;;2.40;;
29002;SDS011;16102;57.138;-2.118;2022-11-06T17:27:05;9.32;;;3.00;;
29002;SDS011;16102;57.138;-2.118;2022-11-06T17:29:33;6.18;;;2.45;;
29002;SDS011;16102;57.138;-2.118;2022-11-06T17:32:01;6.35;;;2.92;;
29002;SDS011;16102;57.138;-2.118;2022-11-06T17:34:29;5.35;;;2.75;;
29002;SDS011;16102;57.138;-2.118;2022-11-06T17:36:56;9.23;;;3.85;;
29002;SDS011;16102;57.138;-2.118;2022-11-06T17:39:23;10.40;;;3.22;;
29002;SDS011;16102;57.138;-2.118;2022-11-06T17:41:49;4.22;;;2.55;;
29002;SDS011;16102;57.138;-2.118;2022-11-06T17:44:18;4.47;;;2.55;;
29002;SDS011;16102;57.138;-2.118;2022-11-06T17:46:47;9.25;;;3.45;;
29002;SDS011;16102;57.138;-2.118;2022-11-06T17:49:14;4.93;;;2.20;;
29002;SDS011;16102;57.138;-2.118;2022-11-06T17:51:44;4.30;;;2.20;;
29002;SDS011;16102;57.138;-2.118;2022-11-06T17:54:24;4.80;;;2.55;;
29002;SDS011;16102;57.138;-2.118;2022-11-06T17:56:54;5.28;;;2.05;;
29002;SDS011;16102;57.138;-2.118;2022-11-06T17:59:22;16.63;;;6.38;;
29002;SDS011;16102;57.138;-2.118;2022-11-06T18:01:49;7.53;;;3.08;;